Typo, Kentucky
Current Conditions -  °F | °C
As of 11:53 AM on Friday 28 Nov 2014 (Local Time) from KJKL Reporting Station
Clear Clear  
Wind Chill: 26°   Ceiling: Unl
Heat Index: 32°   Visibility: 10mi
Dew Point: 17°   Wind: 6mph
Humidity: 54%   Direction: 190°S
Pressure: 30.35"   Gusts: NA
Location:  37.2415°N, 83.2013°W
Report Text: KJKL 281653Z AUTO 19005KT 10SM CLR 00/M08 A3035 RMK AO2 SLP290 T00001083
Loading
Personal Weather Stations






























Interactive Weather Map New forecast layout! Learn more

10-Day Weather Forecast

Advertisements
Track Severe Weather on mobile